Mermentau, Louisiana
Current Conditions -  °F | °C
As of 12:55 AM on Friday 28 Nov 2014 (Local Time) from K3R7 Reporting Station
Clear Clear  
Wind Chill: 34°   Ceiling: Unl
Heat Index: 40°   Visibility: 10mi
Dew Point: 35°   Wind: 8mph
Humidity: 82%   Direction: 80°E
Pressure: 30.42"   Gusts: NA
Location:  30.19°N, 92.58°W
Report Text: K3R7 280655Z AUTO 08007KT 10SM CLR 04/02 A3042 RMK AO2 T00430015
Loading
Personal Weather Stations






























Interactive Weather Map New forecast layout! Learn more

10-Day Weather Forecast

Advertisements
Track Severe Weather on mobile